Palm Bay, FL (32907)

7:12 AM EST on December 25, 2014 (GMT -0500)
Vermont Street Weather | Change Station
CLOSE
Current Station
Personal Weather Station
Location: Palm Bay, FL
Elevation: 25 ft
Nearby Weather Stations

Elev 25 ft 28.02 °N, 80.66 °W | Updated 2 minutes ago

Mostly Cloudy
Mostly Cloudy
61.8 °F
Feels Like 61.8 °F
N
0.0
Wind Variable Wind from NW
Gusts 0.0 mph

Today
High -- | Low -- °F
--% Chance of Precip.
Yesterday
High -- | Low -- °F
Precip. -- in
7:11 AM 5:34 PM
Waxing Crescent, 16% visible
Pressure 30.09 in
Visibility 10.0 miles
Clouds Scattered Clouds 1500 ft
Dew Point 60 °F
Humidity 93%
Rainfall 0.00 in
Snow Depth Not available.
UV 0 out of 12
Pollen 4.40 out of 12
Air Quality Not available.
Flu Activity Not available.
METAR KMLB 251153Z 31008KT 10SM SCT015 17/15 A3009 RMK AO2 SLP188 60000 70025 T01720150 10189 20172 53028 $

More Conditions Fewer Conditions

Pressure 30.09 in
Visibility 10.0 miles
Clouds Scattered Clouds 1500 ft
Dew Point 60 °F
Humidity 93%
Rainfall 0.00 in
Snow Depth Not available.
UV 0 out of 12
Pollen 4.40 out of 12
Air Quality Not available.
Flu Activity Not available.
METAR KMLB 251153Z 31008KT 10SM SCT015 17/15 A3009 RMK AO2 SLP188 60000 70025 T01720150 10189 20172 53028 $

More Conditions Fewer Conditions

Nowcast | as of 6:32 am EST on December 25, 2014

After record high temperatures across much of east central Florida yesterday cooler temperatures are in store today behind a cold front moving through the Bahamas this morning. Highs are expected in the mid to upper 60s from Orlando northward and in the lower 70s across Okeechobee County and the Treasure Coast. Northwest winds up to 15 to 20 knots offshore will make conditions hazardous for small craft. Small craft operators should exercise caution if venturing offshore this Christmas day. Dry weather is forecast over land. Additional details...including graphics are available online at: http://www.Srh.NOAA.Gov/mlb/blog.Php

×

10-Day Weather Forecast

Almanac

Astronomy

Dec. 25, 2014 Rise Set
Actual Time
Civil Twilight
Nautical Twilight
Astronomical Twilight
Moon
Length of Visible Light
Length of Day
Tomorrow will be .
, % of the Moon is Illuminated

Today's Extremes

State Highs State Lows

Community

WunderPhotos

Upload Photos

1,780,264 photos uploaded!

WunderBlogs® & News

Nearby

Air Quality

  Air Quality AQ Index Pollutant
Not available.

Snow Depth

Station Depth Elevation

Earthquake Activity

City Distance Mag. Time & Date
Minimum magnitude displayed is 2.5.

Coastal Water Temperatures

Place Temperature

Nearby Weather Stations